Time;durP1;ratioP1;P1;durP2;ratioP2;P2;SDS_P1;SDS_P2;PMS_P1;PMS_P2;Temp;Humidity;BMP_temperature;BMP_pressure;BME280_temperature;BME280_humidity;BME280_pressure;Samples;Min_cycle;Max_cycle;Signal;HPM_P1;HPM_P2
2023/10/08 00:00:49;;;;;;;;;28.67;26.33;;;;;;;;5081241;27;45386;-40
2023/10/08 00:03:15;;;;;;;;;34.33;30.33;;;;;;;;5079407;27;45382;-40
2023/10/08 00:05:41;;;;;;;;;31.00;29.33;;;;;;;;5070921;28;46027;-39
2023/10/08 00:08:07;;;;;;;;;36.67;33.33;;;;;;;;5079808;27;45282;-40
2023/10/08 00:10:37;;;;;;;;;40.67;34.00;;;;;;;;5079291;27;45604;-40
2023/10/08 00:13:02;;;;;;;;;36.00;33.00;;;;;;;;5078756;27;45485;-40
2023/10/08 00:15:28;;;;;;;;;38.33;32.00;;;;;;;;5071676;28;46988;-40
2023/10/08 00:17:54;;;;;;;;;35.67;31.00;;;;;;;;5071622;27;45241;-40
2023/10/08 00:20:28;;;;;;;;;33.33;31.33;;;;;;;;5072585;28;45520;-40
2023/10/08 00:22:56;;;;;;;;;36.00;31.33;;;;;;;;5075996;28;46792;-42
2023/10/08 00:25:21;;;;;;;;;36.33;31.00;;;;;;;;5069939;28;46238;-40
2023/10/08 00:27:50;;;;;;;;;37.00;34.00;;;;;;;;5079992;27;45322;-40
2023/10/08 00:30:17;;;;;;;;;38.33;33.00;;;;;;;;5076164;28;45544;-40
2023/10/08 00:32:43;;;;;;;;;39.67;34.00;;;;;;;;5076162;27;45429;-40
2023/10/08 00:35:13;;;;;;;;;44.00;34.00;;;;;;;;5075070;28;45329;-40
2023/10/08 00:37:39;;;;;;;;;38.00;33.00;;;;;;;;5080105;28;45406;-41
2023/10/08 00:40:11;;;;;;;;;36.33;33.00;;;;;;;;5071105;28;45297;-40
2023/10/08 00:42:37;;;;;;;;;45.00;34.33;;;;;;;;5064822;27;45658;-40
2023/10/08 00:45:04;;;;;;;;;47.00;36.67;;;;;;;;5074106;28;45444;-40
2023/10/08 00:47:34;;;;;;;;;43.33;36.33;;;;;;;;5063952;27;45483;-39
2023/10/08 00:50:09;;;;;;;;;36.33;33.00;;;;;;;;5075609;28;45403;-40
2023/10/08 00:52:45;;;;;;;;;41.33;33.67;;;;;;;;5079286;28;45410;-40
2023/10/08 00:55:20;;;;;;;;;34.33;32.33;;;;;;;;5078634;28;46871;-40
2023/10/08 00:57:48;;;;;;;;;39.33;33.00;;;;;;;;5078664;28;45468;-40
2023/10/08 01:00:21;;;;;;;;;39.33;34.33;;;;;;;;5078168;27;45563;-40
2023/10/08 01:02:46;;;;;;;;;43.33;34.00;;;;;;;;5078651;27;45460;-40
2023/10/08 01:05:18;;;;;;;;;40.00;33.33;;;;;;;;5076168;27;46329;-40
2023/10/08 01:07:44;;;;;;;;;42.67;36.00;;;;;;;;5078076;27;45417;-40
2023/10/08 01:10:10;;;;;;;;;36.67;33.67;;;;;;;;5077356;27;45486;-40
2023/10/08 01:12:44;;;;;;;;;41.00;34.67;;;;;;;;5073031;28;45588;-40
2023/10/08 01:15:23;;;;;;;;;34.67;30.33;;;;;;;;5071082;27;46141;-40
2023/10/08 01:17:59;;;;;;;;;42.67;35.67;;;;;;;;5077583;27;46482;-40
2023/10/08 01:23:03;;;;;;;;;38.00;33.00;;;;;;;;5072355;27;45330;-40
2023/10/08 01:25:29;;;;;;;;;36.67;30.67;;;;;;;;5075920;27;46374;-40
2023/10/08 01:28:00;;;;;;;;;40.67;34.33;;;;;;;;5077211;27;45437;-40
2023/10/08 01:30:26;;;;;;;;;41.67;35.00;;;;;;;;5073866;27;45437;-39
2023/10/08 01:32:51;;;;;;;;;39.00;33.33;;;;;;;;5073517;27;45700;-40
2023/10/08 01:35:23;;;;;;;;;35.00;31.00;;;;;;;;5074943;27;46271;-40
2023/10/08 01:37:51;;;;;;;;;40.33;34.00;;;;;;;;5079573;27;45422;-40
2023/10/08 01:40:17;;;;;;;;;39.00;32.00;;;;;;;;5075583;27;45211;-40
2023/10/08 01:42:43;;;;;;;;;40.33;34.67;;;;;;;;5070612;27;45449;-40
2023/10/08 01:45:10;;;;;;;;;39.33;35.00;;;;;;;;5073007;27;45336;-40
2023/10/08 01:47:35;;;;;;;;;35.33;31.00;;;;;;;;5071531;27;45470;-40
2023/10/08 01:50:05;;;;;;;;;34.33;32.00;;;;;;;;5070529;27;45362;-40
2023/10/08 01:52:30;;;;;;;;;39.00;30.67;;;;;;;;5070747;27;45512;-40
2023/10/08 01:54:56;;;;;;;;;35.00;32.00;;;;;;;;5069656;27;46373;-40
2023/10/08 01:57:21;;;;;;;;;36.67;30.00;;;;;;;;5077421;28;45223;-40
2023/10/08 01:59:46;;;;;;;;;32.00;30.33;;;;;;;;5078409;28;45464;-39
2023/10/08 02:02:15;;;;;;;;;43.33;34.00;;;;;;;;5076403;27;45296;-40
2023/10/08 02:04:40;;;;;;;;;34.67;30.00;;;;;;;;5071178;27;47115;-40
2023/10/08 02:07:08;;;;;;;;;31.33;31.00;;;;;;;;5071402;27;45331;-39
2023/10/08 02:09:33;;;;;;;;;26.33;26.00;;;;;;;;5073163;28;45274;-40
2023/10/08 02:11:58;;;;;;;;;28.33;27.00;;;;;;;;5081098;27;45405;-40
2023/10/08 02:14:24;;;;;;;;;24.33;19.00;;;;;;;;5071413;27;47183;-40
2023/10/08 02:16:52;;;;;;;;;30.00;27.00;;;;;;;;5073672;27;45377;-39
2023/10/08 02:19:18;;;;;;;;;25.33;25.00;;;;;;;;5076663;28;46257;-48
2023/10/08 02:21:46;;;;;;;;;22.67;20.00;;;;;;;;5073659;27;45507;-40
2023/10/08 02:24:11;;;;;;;;;24.00;22.33;;;;;;;;5073585;27;46068;-40
2023/10/08 02:26:36;;;;;;;;;20.00;20.00;;;;;;;;5075942;27;45483;-40
2023/10/08 02:29:01;;;;;;;;;24.33;24.33;;;;;;;;5078858;27;45463;-40
2023/10/08 02:31:27;;;;;;;;;23.00;20.33;;;;;;;;5075808;27;45400;-39
2023/10/08 02:33:53;;;;;;;;;25.67;22.67;;;;;;;;5073273;27;46084;-40
2023/10/08 02:36:19;;;;;;;;;25.67;24.67;;;;;;;;5077978;27;45674;-40
2023/10/08 02:38:44;;;;;;;;;19.00;19.00;;;;;;;;5073260;27;45788;-40
2023/10/08 02:41:15;;;;;;;;;20.00;19.67;;;;;;;;5068689;27;45790;-40
2023/10/08 02:43:42;;;;;;;;;21.33;20.00;;;;;;;;5069621;27;45491;-40
2023/10/08 02:46:07;;;;;;;;;26.67;24.00;;;;;;;;5076255;27;45413;-40
2023/10/08 02:48:35;;;;;;;;;26.33;22.00;;;;;;;;5070037;27;45424;-40
2023/10/08 02:51:21;;;;;;;;;22.33;18.00;;;;;;;;5074457;28;45242;-40
2023/10/08 02:53:46;;;;;;;;;23.67;21.00;;;;;;;;5069246;27;45616;-40
2023/10/08 02:56:14;;;;;;;;;22.33;19.67;;;;;;;;5076917;27;45274;-40
2023/10/08 02:58:40;;;;;;;;;23.00;19.67;;;;;;;;5077345;27;45668;-40
2023/10/08 03:01:12;;;;;;;;;24.00;20.00;;;;;;;;5075710;27;45458;-40
2023/10/08 03:03:37;;;;;;;;;19.67;18.00;;;;;;;;5073265;27;46217;-40
2023/10/08 03:06:03;;;;;;;;;19.00;17.67;;;;;;;;5077332;27;45275;-40
2023/10/08 03:08:31;;;;;;;;;23.67;20.00;;;;;;;;5077955;27;45418;-40
2023/10/08 03:10:57;;;;;;;;;17.00;17.00;;;;;;;;5073455;28;45369;-40
2023/10/08 03:13:22;;;;;;;;;16.33;16.33;;;;;;;;5075480;27;46896;-40
2023/10/08 03:18:25;;;;;;;;;18.00;16.67;;;;;;;;5077633;27;45357;-40
2023/10/08 03:20:50;;;;;;;;;20.00;18.33;;;;;;;;5068894;28;45661;-40
2023/10/08 03:23:23;;;;;;;;;14.67;14.67;;;;;;;;5079576;27;46092;-40
2023/10/08 03:25:59;;;;;;;;;19.67;18.33;;;;;;;;5076511;27;46719;-39
2023/10/08 03:28:24;;;;;;;;;17.67;16.33;;;;;;;;5073593;27;45830;-40
2023/10/08 03:30:50;;;;;;;;;18.00;16.00;;;;;;;;5071875;27;45805;-40
2023/10/08 03:33:26;;;;;;;;;19.33;16.67;;;;;;;;5076069;27;46222;-40
2023/10/08 03:35:57;;;;;;;;;17.33;16.00;;;;;;;;5078347;27;45576;-40
2023/10/08 03:38:28;;;;;;;;;16.67;16.67;;;;;;;;5073832;27;45382;-40
2023/10/08 03:41:06;;;;;;;;;16.00;15.00;;;;;;;;5079868;27;45754;-40
2023/10/08 03:43:35;;;;;;;;;16.33;16.33;;;;;;;;5069264;27;46147;-40
2023/10/08 03:46:05;;;;;;;;;12.67;12.67;;;;;;;;5071312;28;45298;-40
2023/10/08 03:48:36;;;;;;;;;18.00;18.00;;;;;;;;5076005;27;46403;-40
2023/10/08 03:51:06;;;;;;;;;21.67;15.67;;;;;;;;5074166;27;45460;-39
2023/10/08 03:53:34;;;;;;;;;16.33;16.33;;;;;;;;5073845;27;46344;-39
2023/10/08 03:56:05;;;;;;;;;14.33;14.33;;;;;;;;5071551;28;45591;-40
2023/10/08 03:58:32;;;;;;;;;18.33;18.33;;;;;;;;5075058;27;45478;-40
2023/10/08 04:01:08;;;;;;;;;18.00;16.33;;;;;;;;5077222;27;45808;-40
2023/10/08 04:03:57;;;;;;;;;23.00;19.00;;;;;;;;5071920;27;46257;-40
2023/10/08 04:06:30;;;;;;;;;20.00;17.00;;;;;;;;5075169;27;45213;-40
2023/10/08 04:09:11;;;;;;;;;13.67;13.33;;;;;;;;5072340;27;45807;-40
2023/10/08 04:11:49;;;;;;;;;17.00;15.33;;;;;;;;5076127;27;45919;-39
2023/10/08 04:14:16;;;;;;;;;17.33;15.33;;;;;;;;5078174;27;45951;-40
2023/10/08 04:16:41;;;;;;;;;20.00;16.00;;;;;;;;5076561;27;45347;-39
2023/10/08 04:19:07;;;;;;;;;16.67;15.00;;;;;;;;5074588;27;45326;-40
2023/10/08 04:21:33;;;;;;;;;18.00;17.33;;;;;;;;5076932;27;45474;-40
2023/10/08 04:24:03;;;;;;;;;17.33;16.67;;;;;;;;5079244;28;46308;-39
2023/10/08 04:26:28;;;;;;;;;18.67;16.67;;;;;;;;5078289;27;45488;-39
2023/10/08 04:28:57;;;;;;;;;17.67;16.33;;;;;;;;5075072;27;45427;-40
2023/10/08 04:31:28;;;;;;;;;20.67;16.67;;;;;;;;5079468;27;45531;-39
2023/10/08 04:33:54;;;;;;;;;15.00;12.00;;;;;;;;5078435;27;46245;-40
2023/10/08 04:36:19;;;;;;;;;19.33;17.33;;;;;;;;5072344;27;45737;-40
2023/10/08 04:38:47;;;;;;;;;15.67;15.67;;;;;;;;5074574;27;45469;-40
2023/10/08 04:41:16;;;;;;;;;1.00;1.00;;;;;;;;5078922;27;46615;-39
2023/10/08 04:43:42;;;;;;;;;17.33;15.67;;;;;;;;5075310;27;46392;-40
2023/10/08 04:46:33;;;;;;;;;17.67;16.67;;;;;;;;5078599;27;45511;-39
2023/10/08 04:48:59;;;;;;;;;25.33;19.67;;;;;;;;5074789;27;45259;-39
2023/10/08 04:51:24;;;;;;;;;23.67;20.00;;;;;;;;5075488;28;45784;-40
2023/10/08 04:53:49;;;;;;;;;24.00;19.33;;;;;;;;5074970;27;47126;-39
2023/10/08 04:56:18;;;;;;;;;22.33;19.00;;;;;;;;5078761;27;45344;-40
2023/10/08 04:58:47;;;;;;;;;21.00;18.67;;;;;;;;5080298;27;45619;-39
2023/10/08 05:04:06;;;;;;;;;21.00;20.00;;;;;;;;5075916;27;46120;-39
2023/10/08 05:09:22;;;;;;;;;20.00;19.00;;;;;;;;5077758;28;45507;-39
2023/10/08 05:35:48;;;;;;;;;23.67;19.33;;;;;;;;5071232;27;46788;-40
2023/10/08 05:57:07;;;;;;;;;26.00;20.67;;;;;;;;5075224;27;45351;-40
2023/10/08 05:59:52;;;;;;;;;19.67;18.33;;;;;;;;5080538;27;45456;-40
2023/10/08 06:02:54;;;;;;;;;23.67;21.00;;;;;;;;5071503;27;45627;-40
2023/10/08 06:07:56;;;;;;;;;20.67;17.33;;;;;;;;5079244;27;45449;-40
2023/10/08 06:13:09;;;;;;;;;21.00;20.33;;;;;;;;5079479;27;45334;-40
2023/10/08 06:18:25;;;;;;;;;23.00;17.67;;;;;;;;5077456;27;46154;-40
2023/10/08 06:20:54;;;;;;;;;21.67;19.67;;;;;;;;5080002;28;45236;-43
2023/10/08 06:23:20;;;;;;;;;19.33;17.33;;;;;;;;5081280;27;45260;-44
2023/10/08 06:25:45;;;;;;;;;18.67;16.00;;;;;;;;5081128;27;45508;-44
2023/10/08 06:28:15;;;;;;;;;19.67;18.00;;;;;;;;5077124;27;46556;-45
2023/10/08 06:30:40;;;;;;;;;18.00;18.00;;;;;;;;5080350;27;46741;-44
2023/10/08 06:33:06;;;;;;;;;23.67;22.00;;;;;;;;5076169;27;45442;-44
2023/10/08 06:35:33;;;;;;;;;20.00;19.00;;;;;;;;5080332;27;45572;-45
2023/10/08 06:38:00;;;;;;;;;22.67;18.33;;;;;;;;5080243;27;45450;-44
2023/10/08 06:40:40;;;;;;;;;21.67;20.67;;;;;;;;5080425;28;45457;-46
2023/10/08 06:43:14;;;;;;;;;16.67;15.67;;;;;;;;5081119;28;45495;-45
2023/10/08 06:45:43;;;;;;;;;21.67;18.33;;;;;;;;5079286;28;45415;-45
2023/10/08 06:48:09;;;;;;;;;19.00;17.67;;;;;;;;5080402;27;46367;-44
2023/10/08 06:50:40;;;;;;;;;20.00;20.00;;;;;;;;5079865;28;45286;-44
2023/10/08 06:53:09;;;;;;;;;21.67;18.00;;;;;;;;5079875;27;45809;-45
2023/10/08 06:55:35;;;;;;;;;24.00;20.33;;;;;;;;5079532;28;46537;-45
2023/10/08 06:58:00;;;;;;;;;21.00;21.00;;;;;;;;5079297;28;46215;-44
2023/10/08 07:00:39;;;;;;;;;23.67;19.33;;;;;;;;5079915;28;45410;-44
2023/10/08 07:03:06;;;;;;;;;21.67;18.33;;;;;;;;5078620;28;45369;-44
2023/10/08 07:05:36;;;;;;;;;22.67;22.33;;;;;;;;5080131;28;45564;-45
2023/10/08 07:08:06;;;;;;;;;20.33;20.33;;;;;;;;5080352;27;46265;-47
2023/10/08 07:10:31;;;;;;;;;18.00;18.00;;;;;;;;5079015;27;45222;-48
2023/10/08 07:12:57;;;;;;;;;23.33;21.00;;;;;;;;5081276;27;45552;-44
2023/10/08 07:15:26;;;;;;;;;23.00;21.00;;;;;;;;5079370;27;45315;-45
2023/10/08 07:17:51;;;;;;;;;20.00;20.00;;;;;;;;5080237;27;46425;-44
2023/10/08 07:20:22;;;;;;;;;24.67;23.33;;;;;;;;5079558;27;45866;-44
2023/10/08 07:22:53;;;;;;;;;24.00;24.00;;;;;;;;5078359;27;45386;-44
2023/10/08 07:25:20;;;;;;;;;22.33;21.00;;;;;;;;5079318;27;46418;-45
2023/10/08 07:27:46;;;;;;;;;21.67;20.33;;;;;;;;5078824;27;46210;-45
2023/10/08 07:30:12;;;;;;;;;25.33;22.67;;;;;;;;5079853;27;45480;-45
2023/10/08 07:32:38;;;;;;;;;23.67;21.00;;;;;;;;5079490;28;45398;-44
2023/10/08 07:37:48;;;;;;;;;22.00;21.67;;;;;;;;5077658;28;45497;-44
2023/10/08 07:40:13;;;;;;;;;21.00;21.00;;;;;;;;5082758;27;45504;-45
2023/10/08 07:42:39;;;;;;;;;23.67;19.67;;;;;;;;5082909;27;45227;-44
2023/10/08 07:45:04;;;;;;;;;20.33;18.33;;;;;;;;5078806;27;45540;-48
2023/10/08 07:47:30;;;;;;;;;19.50;17.50;;;;;;;;5083838;27;46887;-45
2023/10/08 07:49:55;;;;;;;;;24.67;20.67;;;;;;;;5079020;28;45495;-47
2023/10/08 07:52:20;;;;;;;;;23.00;20.33;;;;;;;;5079425;27;45232;-44
2023/10/08 07:54:47;;;;;;;;;28.00;23.00;;;;;;;;5075226;27;45838;-44
2023/10/08 07:57:17;;;;;;;;;25.67;23.33;;;;;;;;5077042;27;46127;-45
2023/10/08 07:59:48;;;;;;;;;27.67;25.33;;;;;;;;5079818;28;45286;-45
2023/10/08 08:02:14;;;;;;;;;29.00;24.00;;;;;;;;5074990;28;45714;-47
2023/10/08 08:04:40;;;;;;;;;22.67;22.67;;;;;;;;5073456;28;45584;-44
2023/10/08 08:07:06;;;;;;;;;26.00;24.67;;;;;;;;5078190;28;45675;-43
2023/10/08 08:09:37;;;;;;;;;27.00;24.33;;;;;;;;5069823;28;45490;-45
2023/10/08 08:12:07;;;;;;;;;24.33;23.00;;;;;;;;5078318;28;45684;-45
2023/10/08 08:14:32;;;;;;;;;23.33;22.33;;;;;;;;5074957;28;46538;-45
2023/10/08 08:17:13;;;;;;;;;25.33;23.33;;;;;;;;5077032;28;46073;-44
2023/10/08 08:19:38;;;;;;;;;23.33;22.33;;;;;;;;5078943;27;45581;-45
2023/10/08 08:22:03;;;;;;;;;28.33;23.67;;;;;;;;5074638;28;45220;-45
2023/10/08 08:24:29;;;;;;;;;28.33;24.33;;;;;;;;5074263;28;45515;-44
2023/10/08 08:27:11;;;;;;;;;27.33;25.33;;;;;;;;5075380;27;45452;-44
2023/10/08 08:29:45;;;;;;;;;24.00;24.00;;;;;;;;5078858;27;45587;-44
2023/10/08 08:32:15;;;;;;;;;20.33;18.33;;;;;;;;5080337;27;45397;-44
2023/10/08 08:34:43;;;;;;;;;25.33;25.00;;;;;;;;5081381;27;45732;-45
2023/10/08 08:37:08;;;;;;;;;27.67;25.00;;;;;;;;5077365;27;46785;-47
2023/10/08 08:39:35;;;;;;;;;22.00;21.00;;;;;;;;5078899;27;45307;-45
2023/10/08 08:42:07;;;;;;;;;28.00;25.33;;;;;;;;5078221;28;45515;-47
2023/10/08 08:44:36;;;;;;;;;28.00;25.67;;;;;;;;5074986;27;45216;-44
2023/10/08 08:47:04;;;;;;;;;24.67;23.33;;;;;;;;5079615;27;45615;-45
2023/10/08 08:49:32;;;;;;;;;29.33;27.33;;;;;;;;5075025;27;45535;-45
2023/10/08 08:52:00;;;;;;;;;29.00;24.33;;;;;;;;5079111;27;45405;-44
2023/10/08 08:54:26;;;;;;;;;33.33;26.00;;;;;;;;5075005;27;45609;-46
2023/10/08 08:56:52;;;;;;;;;30.00;25.67;;;;;;;;5079191;27;46884;-44
2023/10/08 08:59:17;;;;;;;;;32.33;27.00;;;;;;;;5076901;27;45466;-44
2023/10/08 09:01:44;;;;;;;;;29.33;29.00;;;;;;;;5084109;27;45443;-45
2023/10/08 09:04:09;;;;;;;;;31.33;27.67;;;;;;;;5078684;27;45926;-47
2023/10/08 09:06:37;;;;;;;;;32.67;29.33;;;;;;;;5078621;27;45785;-45
2023/10/08 09:11:47;;;;;;;;;35.67;29.67;;;;;;;;5078093;27;45586;-43
2023/10/08 09:14:12;;;;;;;;;30.67;29.67;;;;;;;;5076854;27;45483;-45
2023/10/08 09:16:38;;;;;;;;;31.67;31.00;;;;;;;;5077426;27;46117;-44
2023/10/08 09:19:04;;;;;;;;;30.67;29.33;;;;;;;;5068069;28;45494;-47
2023/10/08 09:21:30;;;;;;;;;32.67;30.33;;;;;;;;5077903;27;45350;-44
2023/10/08 09:23:56;;;;;;;;;31.67;28.33;;;;;;;;5079860;27;45549;-45
2023/10/08 09:26:25;;;;;;;;;29.67;26.67;;;;;;;;5077108;28;45980;-45
2023/10/08 09:28:51;;;;;;;;;29.67;27.67;;;;;;;;5074609;28;45803;-60
2023/10/08 09:31:17;;;;;;;;;23.67;23.67;;;;;;;;5073878;28;45385;-61
2023/10/08 09:33:43;;;;;;;;;21.67;21.67;;;;;;;;5076462;28;45230;-64
2023/10/08 09:36:10;;;;;;;;;29.00;28.00;;;;;;;;5075871;28;47150;-61
2023/10/08 09:38:36;;;;;;;;;19.67;19.67;;;;;;;;5077137;27;45460;-61
2023/10/08 09:41:02;;;;;;;;;26.00;23.67;;;;;;;;5076122;28;45704;-61
2023/10/08 09:43:28;;;;;;;;;26.00;25.00;;;;;;;;5075365;28;45469;-61
2023/10/08 09:45:56;;;;;;;;;29.67;27.00;;;;;;;;5076347;27;45325;-61
2023/10/08 09:48:22;;;;;;;;;20.00;18.67;;;;;;;;5073390;28;45394;-61
2023/10/08 09:50:47;;;;;;;;;22.67;22.00;;;;;;;;5077104;27;45478;-61
2023/10/08 09:53:16;;;;;;;;;18.67;17.00;;;;;;;;5072794;28;45864;-61
2023/10/08 09:55:48;;;;;;;;;20.67;20.33;;;;;;;;5077392;28;46121;-61
2023/10/08 09:58:15;;;;;;;;;20.00;19.33;;;;;;;;5076512;28;45435;-61
2023/10/08 10:00:42;;;;;;;;;19.25;17.00;;;;;;;;5075981;27;45476;-59
2023/10/08 10:03:08;;;;;;;;;19.00;18.50;;;;;;;;5075296;27;45332;-59
2023/10/08 10:05:36;;;;;;;;;18.75;18.00;;;;;;;;5071698;27;45315;-59
2023/10/08 10:08:05;;;;;;;;;12.00;11.25;;;;;;;;5083326;27;45609;-59
2023/10/08 10:10:33;;;;;;;;;15.67;13.67;;;;;;;;5075765;27;45329;-59
2023/10/08 10:13:01;;;;;;;;;15.50;13.75;;;;;;;;5079169;27;45468;-59
2023/10/08 10:15:30;;;;;;;;;11.25;9.75;;;;;;;;5079777;27;46219;-59
2023/10/08 10:17:58;;;;;;;;;11.75;10.25;;;;;;;;5075352;27;45356;-59
2023/10/08 10:20:24;;;;;;;;;10.75;9.25;;;;;;;;5079212;27;46673;-59
2023/10/08 10:22:49;;;;;;;;;11.00;11.00;;;;;;;;5077329;27;45802;-59
2023/10/08 10:25:18;;;;;;;;;7.25;7.25;;;;;;;;5079680;27;46151;-59
2023/10/08 10:28:04;;;;;;;;;8.75;8.00;;;;;;;;5076969;27;45453;-59
2023/10/08 10:30:29;;;;;;;;;7.50;5.00;;;;;;;;5075910;28;45540;-59
2023/10/08 10:32:54;;;;;;;;;5.75;5.75;;;;;;;;5077346;28;45454;-60
2023/10/08 10:35:20;;;;;;;;;4.75;4.75;;;;;;;;5075922;28;45427;-60
2023/10/08 10:37:51;;;;;;;;;7.00;7.00;;;;;;;;5077570;28;45471;-60
2023/10/08 10:40:28;;;;;;;;;6.00;6.00;;;;;;;;5076785;28;45297;-60
2023/10/08 10:42:55;;;;;;;;;6.75;6.75;;;;;;;;5076548;28;45559;-60
2023/10/08 10:48:34;;;;;;;;;7.00;7.00;;;;;;;;5075125;28;45461;-61
2023/10/08 10:54:07;;;;;;;;;5.50;5.50;;;;;;;;5074337;28;45714;-61
2023/10/08 10:56:31;;;;;;;;;6.75;5.75;;;;;;;;5074219;28;45467;-60
2023/10/08 10:58:59;;;;;;;;;8.25;6.75;;;;;;;;5074443;28;45433;-60
2023/10/08 11:01:29;;;;;;;;;5.75;5.75;;;;;;;;5075149;27;45512;-60
2023/10/08 11:03:57;;;;;;;;;7.25;7.25;;;;;;;;5076492;27;45453;-60
2023/10/08 11:06:23;;;;;;;;;5.00;5.00;;;;;;;;5078313;28;46859;-60
2023/10/08 11:08:52;;;;;;;;;5.00;5.00;;;;;;;;5079662;28;45486;-60
2023/10/08 11:11:18;;;;;;;;;6.75;6.00;;;;;;;;5079105;28;45591;-60
2023/10/08 11:13:46;;;;;;;;;10.75;8.25;;;;;;;;5079132;27;45257;-60
2023/10/08 11:16:15;;;;;;;;;5.75;5.75;;;;;;;;5078326;28;47145;-60
2023/10/08 11:18:46;;;;;;;;;5.50;5.50;;;;;;;;5076092;28;45788;-60
2023/10/08 11:21:24;;;;;;;;;5.75;5.75;;;;;;;;5079068;27;45568;-57
2023/10/08 11:23:53;;;;;;;;;6.75;5.25;;;;;;;;5077939;27;45802;-58
2023/10/08 11:26:19;;;;;;;;;8.25;8.25;;;;;;;;5076851;28;46128;-57
2023/10/08 11:28:47;;;;;;;;;7.50;5.50;;;;;;;;5078549;28;45272;-58
2023/10/08 11:31:14;;;;;;;;;4.75;4.75;;;;;;;;5078960;28;45730;-57
2023/10/08 11:33:40;;;;;;;;;8.75;8.75;;;;;;;;5078320;27;45512;-57
2023/10/08 11:36:07;;;;;;;;;6.25;5.75;;;;;;;;5079464;28;46397;-57
2023/10/08 11:38:41;;;;;;;;;6.25;4.50;;;;;;;;5079141;28;45422;-57
2023/10/08 11:41:13;;;;;;;;;6.00;6.00;;;;;;;;5080084;27;45546;-57
2023/10/08 11:43:39;;;;;;;;;6.50;3.75;;;;;;;;5076206;28;45543;-58
2023/10/08 11:46:04;;;;;;;;;10.50;7.75;;;;;;;;5078406;28;46591;-57
2023/10/08 11:48:32;;;;;;;;;6.75;6.75;;;;;;;;5077730;28;45413;-57
2023/10/08 11:50:57;;;;;;;;;6.25;6.00;;;;;;;;5079022;28;45229;-57
2023/10/08 11:53:24;;;;;;;;;13.75;13.75;;;;;;;;5077979;27;45420;-57
2023/10/08 11:55:51;;;;;;;;;13.00;11.33;;;;;;;;5077860;28;47048;-58
2023/10/08 11:58:20;;;;;;;;;17.67;17.67;;;;;;;;5076838;28;45439;-57
2023/10/08 12:00:46;;;;;;;;;9.75;6.00;;;;;;;;5074739;28;45332;-57
2023/10/08 12:03:18;;;;;;;;;8.50;7.00;;;;;;;;5073253;28;45489;-57
2023/10/08 12:05:47;;;;;;;;;13.50;12.25;;;;;;;;5077936;28;45393;-57
2023/10/08 12:08:14;;;;;;;;;6.00;6.00;;;;;;;;5078433;28;46602;-57
2023/10/08 12:10:40;;;;;;;;;14.50;13.25;;;;;;;;5075165;28;45665;-57
2023/10/08 12:13:06;;;;;;;;;11.00;11.00;;;;;;;;5078397;27;45500;-57
2023/10/08 12:15:38;;;;;;;;;8.00;7.25;;;;;;;;5077993;28;46609;-57
2023/10/08 12:18:15;;;;;;;;;6.75;5.25;;;;;;;;5077810;28;45315;-57
2023/10/08 12:20:47;;;;;;;;;9.75;9.75;;;;;;;;5078477;27;45437;-57
2023/10/08 12:23:19;;;;;;;;;6.50;5.50;;;;;;;;5077877;28;45712;-57
2023/10/08 12:25:51;;;;;;;;;7.75;6.75;;;;;;;;5078385;27;46066;-57
2023/10/08 12:28:16;;;;;;;;;8.25;7.00;;;;;;;;5072586;27;45649;-59
2023/10/08 12:30:42;;;;;;;;;7.75;7.75;;;;;;;;5071751;27;45770;-57
2023/10/08 12:33:12;;;;;;;;;7.00;5.25;;;;;;;;5077295;27;45604;-57
2023/10/08 12:35:37;;;;;;;;;6.25;5.75;;;;;;;;5079170;28;46199;-58
2023/10/08 12:38:05;;;;;;;;;11.50;11.50;;;;;;;;5077346;27;45278;-57
2023/10/08 12:40:42;;;;;;;;;6.75;6.00;;;;;;;;5079202;27;45543;-57
2023/10/08 12:43:07;;;;;;;;;7.50;5.75;;;;;;;;5075099;28;45508;-57
2023/10/08 12:45:32;;;;;;;;;4.75;4.75;;;;;;;;5076730;28;45401;-57
2023/10/08 12:47:58;;;;;;;;;7.00;6.50;;;;;;;;5076984;28;45555;-57
2023/10/08 12:50:29;;;;;;;;;4.75;4.75;;;;;;;;5076214;27;45608;-58
2023/10/08 12:52:57;;;;;;;;;7.25;7.00;;;;;;;;5077298;28;45681;-58
2023/10/08 12:55:23;;;;;;;;;6.25;6.25;;;;;;;;5077768;28;46118;-57
2023/10/08 12:57:55;;;;;;;;;23.33;18.67;;;;;;;;5074350;27;45320;-57
2023/10/08 13:00:23;;;;;;;;;7.75;6.25;;;;;;;;5076864;27;45583;-57
2023/10/08 13:02:53;;;;;;;;;3.00;3.00;;;;;;;;5079238;27;45468;-58
2023/10/08 13:05:21;;;;;;;;;7.50;4.50;;;;;;;;5069809;27;45473;-58
2023/10/08 13:07:46;;;;;;;;;10.00;8.75;;;;;;;;5073417;27;45504;-57
2023/10/08 13:10:14;;;;;;;;;7.00;7.00;;;;;;;;5074154;27;45693;-58
2023/10/08 13:12:39;;;;;;;;;6.50;6.50;;;;;;;;5069102;28;45509;-58
2023/10/08 13:15:06;;;;;;;;;7.25;7.25;;;;;;;;5078656;27;45564;-58
2023/10/08 13:17:31;;;;;;;;;8.00;7.25;;;;;;;;5076976;27;45318;-57
2023/10/08 13:19:56;;;;;;;;;7.00;6.75;;;;;;;;5074076;28;45584;-57
2023/10/08 13:22:24;;;;;;;;;5.00;4.25;;;;;;;;5079380;28;45275;-58
2023/10/08 13:24:49;;;;;;;;;5.00;5.00;;;;;;;;5079310;27;46223;-57
2023/10/08 13:27:16;;;;;;;;;9.50;7.00;;;;;;;;5078565;28;45445;-58
2023/10/08 13:29:43;;;;;;;;;6.25;6.25;;;;;;;;5077757;28;45387;-57
2023/10/08 13:32:17;;;;;;;;;5.75;5.25;;;;;;;;5079086;28;45468;-57
2023/10/08 13:34:42;;;;;;;;;3.50;3.50;;;;;;;;5075085;28;47323;-57
2023/10/08 13:37:07;;;;;;;;;7.00;6.00;;;;;;;;5079362;27;45477;-57
2023/10/08 13:39:35;;;;;;;;;6.00;6.00;;;;;;;;5077780;28;45447;-57
2023/10/08 13:42:01;;;;;;;;;8.50;7.00;;;;;;;;5078482;27;45267;-57
2023/10/08 13:44:28;;;;;;;;;5.75;5.75;;;;;;;;5081867;27;47014;-57
2023/10/08 13:46:57;;;;;;;;;5.50;5.00;;;;;;;;5072864;28;45220;-57
2023/10/08 13:49:22;;;;;;;;;7.00;5.75;;;;;;;;5076320;28;45547;-57
2023/10/08 13:51:55;;;;;;;;;5.50;5.25;;;;;;;;5078550;28;45523;-57
2023/10/08 13:54:21;;;;;;;;;6.25;5.00;;;;;;;;5074056;28;46154;-57
2023/10/08 13:56:48;;;;;;;;;6.25;5.00;;;;;;;;5074592;27;46237;-57
2023/10/08 13:59:13;;;;;;;;;6.00;6.00;;;;;;;;5077548;27;45473;-57
2023/10/08 14:01:42;;;;;;;;;7.00;6.00;;;;;;;;5077075;27;45395;-57
2023/10/08 14:04:09;;;;;;;;;6.75;5.00;;;;;;;;5070839;28;47135;-56
2023/10/08 14:06:40;;;;;;;;;4.00;4.00;;;;;;;;5075871;28;45701;-57
2023/10/08 14:09:11;;;;;;;;;4.00;4.00;;;;;;;;5066645;28;45566;-56
2023/10/08 14:11:37;;;;;;;;;4.00;4.00;;;;;;;;5068602;28;46896;-57
2023/10/08 14:14:07;;;;;;;;;10.00;7.25;;;;;;;;5072742;27;45582;-57
2023/10/08 14:16:32;;;;;;;;;7.00;4.00;;;;;;;;5073105;27;46710;-57
2023/10/08 14:18:59;;;;;;;;;7.00;4.00;;;;;;;;5074717;27;45361;-56
2023/10/08 14:21:30;;;;;;;;;4.00;4.00;;;;;;;;5077003;27;45341;-56
2023/10/08 14:23:56;;;;;;;;;5.25;4.75;;;;;;;;5073898;27;46464;-55
2023/10/08 14:26:22;;;;;;;;;5.00;4.00;;;;;;;;5077039;27;45498;-56
2023/10/08 14:28:57;;;;;;;;;5.75;5.00;;;;;;;;5075303;27;45889;-56
2023/10/08 14:31:22;;;;;;;;;7.25;5.75;;;;;;;;5075053;27;45369;-56
2023/10/08 14:45:10;;;;;;;;;6.00;5.75;;;;;;;;5075343;27;45356;-55
2023/10/08 14:47:36;;;;;;;;;7.25;4.75;;;;;;;;5075594;28;46939;-56
2023/10/08 14:50:04;;;;;;;;;5.00;3.50;;;;;;;;5080084;27;45412;-56
2023/10/08 14:52:31;;;;;;;;;7.00;4.75;;;;;;;;5079652;28;45402;-57
2023/10/08 14:54:56;;;;;;;;;6.25;4.75;;;;;;;;5080646;27;47027;-55
2023/10/08 14:57:21;;;;;;;;;4.25;4.00;;;;;;;;5079990;28;45449;-56
2023/10/08 14:59:48;;;;;;;;;5.00;3.00;;;;;;;;5077185;27;45413;-56
2023/10/08 15:02:13;;;;;;;;;4.00;3.75;;;;;;;;5078603;27;45754;-56
2023/10/08 15:04:41;;;;;;;;;6.25;5.00;;;;;;;;5078749;27;45570;-56
2023/10/08 15:07:11;;;;;;;;;5.75;4.25;;;;;;;;5076591;28;46896;-57
2023/10/08 15:09:37;;;;;;;;;5.00;5.00;;;;;;;;5074427;27;45534;-56
2023/10/08 15:12:02;;;;;;;;;4.75;4.75;;;;;;;;5079296;27;45472;-56
2023/10/08 15:14:27;;;;;;;;;3.50;3.25;;;;;;;;5078988;28;46670;-56
2023/10/08 15:16:53;;;;;;;;;4.75;4.00;;;;;;;;5072666;27;45469;-56
2023/10/08 15:19:19;;;;;;;;;4.00;4.00;;;;;;;;5078857;28;45640;-56
2023/10/08 15:21:44;;;;;;;;;5.25;3.75;;;;;;;;5078020;27;45448;-57
2023/10/08 15:24:13;;;;;;;;;3.00;3.00;;;;;;;;5076823;28;47183;-56
2023/10/08 15:26:42;;;;;;;;;5.50;5.25;;;;;;;;5079001;27;45468;-56
2023/10/08 15:29:07;;;;;;;;;4.00;4.00;;;;;;;;5071964;28;45422;-56
2023/10/08 15:31:32;;;;;;;;;4.50;4.50;;;;;;;;5078924;27;45562;-56
2023/10/08 15:33:57;;;;;;;;;3.50;3.50;;;;;;;;5074321;28;46249;-56
2023/10/08 15:36:22;;;;;;;;;7.25;4.25;;;;;;;;5076336;28;45770;-53
2023/10/08 15:38:48;;;;;;;;;6.00;5.25;;;;;;;;5075530;28;45886;-53
2023/10/08 15:41:16;;;;;;;;;4.75;4.00;;;;;;;;5077018;28;45834;-53
2023/10/08 15:43:44;;;;;;;;;4.25;4.00;;;;;;;;5072324;28;46501;-54
2023/10/08 15:46:09;;;;;;;;;4.00;4.00;;;;;;;;5068828;27;45404;-54
2023/10/08 15:48:37;;;;;;;;;4.00;2.00;;;;;;;;5078987;27;45771;-54
2023/10/08 15:51:02;;;;;;;;;3.00;2.00;;;;;;;;5073244;28;45448;-53
2023/10/08 15:53:27;;;;;;;;;4.50;4.00;;;;;;;;5077113;28;46847;-53
2023/10/08 15:55:52;;;;;;;;;5.00;5.00;;;;;;;;5079770;27;45345;-53